Time;durP1;ratioP1;P1;durP2;ratioP2;P2;SDS_P1;SDS_P2;PMS_P1;PMS_P2;Temp;Humidity;BMP_temperature;BMP_pressure;BME280_temperature;BME280_humidity;BME280_pressure;Samples;Min_cycle;Max_cycle;Signal;HPM_P1;HPM_P2
2021/03/01 00:03:31;;;;;;;14.47;9.57;;;;;;;2.47;80.40;101058.37;510457;1099;114542;-59
2021/03/01 00:13:35;;;;;;;11.27;8.90;;;;;;;2.45;80.24;101075.67;510677;1099;114975;-60
2021/03/01 00:23:39;;;;;;;11.73;9.03;;;;;;;2.44;80.09;101066.17;510749;1099;114636;-58
2021/03/01 00:33:43;;;;;;;9.95;8.10;;;;;;;2.41;80.42;101090.38;510785;1099;114305;-58
2021/03/01 00:43:47;;;;;;;11.57;8.97;;;;;;;2.45;80.14;101105.03;511032;1099;113737;-59
2021/03/01 00:53:51;;;;;;;12.13;9.07;;;;;;;2.44;79.91;101108.50;510775;1099;114412;-59
2021/03/01 01:03:55;;;;;;;11.90;7.77;;;;;;;2.44;79.79;101124.06;510836;1099;114712;-58
2021/03/01 01:14:00;;;;;;;13.57;8.87;;;;;;;2.41;80.17;101118.90;510621;1099;114458;-59
2021/03/01 01:24:04;;;;;;;11.90;8.57;;;;;;;2.41;80.07;101111.13;510614;1098;114968;-58
2021/03/01 01:34:08;;;;;;;12.33;9.53;;;;;;;2.43;79.98;101122.34;510774;1099;114927;-59
2021/03/01 01:44:12;;;;;;;12.73;9.23;;;;;;;2.40;79.75;101116.30;510686;1099;114548;-59
2021/03/01 01:54:16;;;;;;;13.47;9.70;;;;;;;2.34;80.21;101120.67;510570;1099;114482;-59
2021/03/01 02:04:26;;;;;;;14.80;10.07;;;;;;;2.29;80.10;101119.81;510541;1098;115640;-59
2021/03/01 02:14:43;;;;;;;12.83;9.80;;;;;;;2.31;80.20;101112.92;510925;1099;114839;-59
2021/03/01 02:24:50;;;;;;;16.30;10.40;;;;;;;2.30;80.28;101115.50;511033;1099;113914;-60
2021/03/01 02:34:54;;;;;;;;;;;;;;;2.21;80.07;101112.08;511011;1099;114401;-59
2021/03/01 02:44:58;;;;;;;13.47;9.03;;;;;;;2.21;80.14;101126.79;510814;1099;100227;-61
2021/03/01 02:55:03;;;;;;;12.35;8.90;;;;;;;2.16;80.18;101128.52;511132;1099;114131;-60
2021/03/01 03:05:13;;;;;;;13.77;9.67;;;;;;;2.11;80.40;101141.50;511172;1099;115070;-59
2021/03/01 03:15:20;;;;;;;15.70;10.93;;;;;;;2.10;80.44;101144.95;511057;1098;113922;-59
2021/03/01 03:25:23;;;;;;;;;;;;;;;2.07;80.87;101150.16;511083;1099;114525;-59
2021/03/01 03:35:31;;;;;;;15.77;10.47;;;;;;;2.10;80.46;101155.33;510792;1099;101181;-58
2021/03/01 03:45:36;;;;;;;13.20;8.97;;;;;;;2.08;80.26;101157.94;511025;1099;114173;-60
2021/03/01 03:55:46;;;;;;;13.75;9.00;;;;;;;2.04;80.30;101163.14;511046;1098;113885;-58
2021/03/01 04:05:51;;;;;;;13.37;8.80;;;;;;;2.03;80.66;101166.59;510879;1099;113964;-59
2021/03/01 04:15:55;;;;;;;17.33;10.63;;;;;;;2.04;80.69;101157.95;510937;1099;113998;-61
2021/03/01 04:26:00;;;;;;;17.77;10.93;;;;;;;1.98;80.31;101161.42;511044;1099;114803;-59
2021/03/01 04:36:06;;;;;;;19.80;9.90;;;;;;;2.01;80.35;101169.18;511297;1099;115834;-59
2021/03/01 04:46:13;;;;;;;17.45;9.80;;;;;;;2.02;80.68;101173.49;511123;1099;114716;-59
2021/03/01 04:56:18;;;;;;;14.80;9.60;;;;;;;2.00;80.77;101183.00;511164;1099;113896;-60
2021/03/01 05:06:22;;;;;;;17.50;10.77;;;;;;;1.97;80.71;101183.02;511093;1100;114752;-58
2021/03/01 05:16:27;;;;;;;14.43;10.17;;;;;;;1.95;80.80;101184.73;510766;1099;115107;-58
2021/03/01 05:26:34;;;;;;;17.07;11.57;;;;;;;1.96;80.80;101183.86;510802;1098;114894;-59
2021/03/01 05:36:40;;;;;;;21.23;12.90;;;;;;;1.96;81.26;101196.81;510974;1099;114198;-59
2021/03/01 05:46:48;;;;;;;16.83;10.83;;;;;;;1.98;80.83;101210.66;510989;1099;114093;-59
2021/03/01 05:56:53;;;;;;;18.37;11.87;;;;;;;1.95;80.94;101226.19;511179;1099;114472;-60
2021/03/01 06:07:00;;;;;;;21.45;13.25;;;;;;;1.93;81.22;101233.10;510702;1099;114081;-59
2021/03/01 06:17:13;;;;;;;;;;;;;;;2.06;81.22;101241.72;510418;1098;115062;-60
2021/03/01 06:27:18;;;;;;;15.17;9.37;;;;;;;2.09;81.08;101262.44;511238;1098;101108;-59
2021/03/01 06:37:24;;;;;;;13.00;8.77;;;;;;;2.12;80.60;101277.13;511171;1099;114681;-59
2021/03/01 06:47:44;;;;;;;16.17;11.97;;;;;;;2.13;81.09;101281.45;510729;1099;114121;-60
2021/03/01 06:57:48;;;;;;;21.03;11.83;;;;;;;2.24;80.61;101290.91;510913;1099;114493;-60
2021/03/01 07:07:52;;;;;;;18.50;11.73;;;;;;;2.30;81.04;101290.03;511033;1099;114551;-59
2021/03/01 07:17:57;;;;;;;20.90;11.23;;;;;;;2.32;80.53;101297.81;510969;1099;114339;-59
2021/03/01 07:28:03;;;;;;;16.03;11.47;;;;;;;2.41;81.24;101299.52;511058;1099;115123;-58
2021/03/01 07:38:08;;;;;;;18.17;10.33;;;;;;;2.45;80.43;101294.32;510935;1099;114082;-58
2021/03/01 07:48:17;;;;;;;13.13;10.00;;;;;;;2.47;80.41;101302.95;510954;1099;115062;-60
2021/03/01 07:58:21;;;;;;;11.90;7.23;;;;;;;2.66;80.68;101301.19;510646;1098;115002;-58
2021/03/01 08:08:43;;;;;;;11.47;8.27;;;;;;;2.80;79.74;101316.67;510282;1099;114169;-59
2021/03/01 08:18:57;;;;;;;12.27;7.77;;;;;;;2.96;79.48;101311.44;511863;1099;114528;-58
2021/03/01 08:29:15;;;;;;;17.50;10.27;;;;;;;3.06;79.21;101322.63;502300;1099;10001848;-58
2021/03/01 08:40:00;;;;;;;14.47;8.83;;;;;;;3.18;78.71;101326.91;510821;1099;115152;-57
2021/03/01 08:50:06;;;;;;;15.90;9.13;;;;;;;3.21;78.77;101345.90;508547;1099;10001163;-59
2021/03/01 09:00:13;;;;;;;18.40;11.20;;;;;;;3.29;77.93;101360.59;501588;1099;10001158;-60
2021/03/01 09:10:34;;;;;;;19.15;10.32;;;;;;;3.39;78.68;101361.39;510753;1099;115935;-59
2021/03/01 09:20:44;;;;;;;19.13;10.53;;;;;;;3.54;77.87;101358.72;510950;1099;114235;-58
2021/03/01 09:31:02;;;;;;;16.77;10.53;;;;;;;3.63;77.82;101361.23;510853;1098;114218;-58
2021/03/01 09:41:08;;;;;;;23.77;10.93;;;;;;;3.85;77.77;101368.03;510847;1099;114979;-57
2021/03/01 09:51:13;;;;;;;18.20;11.87;;;;;;;3.97;77.72;101375.73;511021;1099;115841;-58
2021/03/01 10:01:19;;;;;;;15.70;9.77;;;;;;;4.04;77.67;101376.54;511426;1099;115073;-55
2021/03/01 10:11:26;;;;;;;14.07;9.53;;;;;;;4.04;77.59;101379.14;512125;1099;114478;-65
2021/03/01 10:21:33;;;;;;;38.97;13.70;;;;;;;4.03;77.26;101377.42;510889;1099;115225;-63
2021/03/01 10:31:39;;;;;;;15.68;8.95;;;;;;;3.82;77.47;101384.50;510791;1099;114168;-60
2021/03/01 10:41:47;;;;;;;13.87;8.73;;;;;;;3.60;77.12;101387.23;510919;1099;113825;-68
2021/03/01 10:51:52;;;;;;;15.87;10.47;;;;;;;3.77;77.17;101387.13;511022;1099;114007;-66
2021/03/01 11:01:56;;;;;;;19.53;9.90;;;;;;;3.97;77.11;101387.84;511333;1099;114459;-65
2021/03/01 11:12:06;;;;;;;20.97;11.90;;;;;;;4.11;76.79;101386.02;511217;1099;172121;-70
2021/03/01 11:22:11;;;;;;;15.10;11.23;;;;;;;4.19;76.80;101394.59;511308;1099;114113;-65
2021/03/01 11:32:15;;;;;;;14.83;10.40;;;;;;;4.35;77.03;101394.48;511264;1099;114655;-63
2021/03/01 11:42:20;;;;;;;17.73;11.13;;;;;;;4.36;76.71;101375.40;511386;1098;114083;-66
2021/03/01 11:52:30;;;;;;;22.45;12.40;;;;;;;4.53;76.07;101374.36;511288;1099;115936;-62
2021/03/01 12:02:34;;;;;;;24.20;12.63;;;;;;;4.66;76.01;101375.95;510831;1099;114607;-63
2021/03/01 12:12:39;;;;;;;22.60;13.93;;;;;;;4.58;76.45;101383.00;511515;1099;114388;-62
2021/03/01 12:22:43;;;;;;;27.40;17.85;;;;;;;4.28;76.04;101369.40;510870;1099;114130;-67
2021/03/01 12:32:47;;;;;;;31.13;19.63;;;;;;;4.11;75.81;101375.63;511204;1099;114586;-62
2021/03/01 12:42:52;;;;;;;35.90;22.53;;;;;;;4.06;76.65;101377.38;511111;1099;114352;-61
2021/03/01 12:53:00;;;;;;;36.57;22.13;;;;;;;4.01;76.88;101379.17;510840;1099;114147;-61
2021/03/01 13:03:06;;;;;;;38.30;25.17;;;;;;;3.98;76.74;101373.97;510981;1099;114711;-62
2021/03/01 13:13:10;;;;;;;40.93;24.40;;;;;;;3.91;75.87;101362.77;510965;1099;114174;-62
2021/03/01 13:23:14;;;;;;;39.77;24.07;;;;;;;3.66;76.19;101362.95;510971;1098;114678;-64
2021/03/01 13:33:18;;;;;;;37.73;24.10;;;;;;;3.64;76.81;101362.98;510810;1099;115157;-63
2021/03/01 13:43:23;;;;;;;42.57;26.33;;;;;;;3.70;76.76;101353.41;510813;1099;115384;-62
2021/03/01 13:53:28;;;;;;;39.80;25.43;;;;;;;3.68;76.37;101352.56;510814;1099;114645;-62
2021/03/01 14:03:32;;;;;;;42.80;28.20;;;;;;;3.71;76.27;101352.53;510924;1099;114446;-66
2021/03/01 14:13:39;;;;;;;50.75;26.75;;;;;;;3.68;76.98;101355.16;511065;1099;114372;-58
2021/03/01 14:23:43;;;;;;;37.42;24.00;;;;;;;3.60;76.82;101355.22;510703;1099;115080;-59
2021/03/01 14:33:47;;;;;;;41.63;25.67;;;;;;;3.54;77.18;101345.73;510450;1099;114501;-62
2021/03/01 14:43:53;;;;;;;54.70;27.10;;;;;;;3.54;77.59;101343.13;510548;1099;115106;-60
2021/03/01 14:53:58;;;;;;;43.00;25.53;;;;;;;3.48;77.01;101327.58;511019;1099;114823;-61
2021/03/01 15:04:01;;;;;;;39.00;23.87;;;;;;;3.37;77.11;101322.46;510754;1099;114619;-61
2021/03/01 15:14:14;;;;;;;34.47;22.10;;;;;;;3.27;77.55;101319.04;510831;1099;114220;-55
2021/03/01 15:24:21;;;;;;;36.83;22.57;;;;;;;3.24;78.11;101323.41;501961;1099;10001155;-57
2021/03/01 15:34:26;;;;;;;32.05;21.00;;;;;;;3.19;77.70;101318.25;510483;1099;115006;-54
2021/03/01 15:44:34;;;;;;;33.23;19.87;;;;;;;3.11;77.61;101320.02;510750;1099;114106;-60
2021/03/01 15:54:38;;;;;;;36.00;21.40;;;;;;;3.08;77.75;101316.56;510530;1099;114219;-60
2021/03/01 16:04:42;;;;;;;38.43;23.00;;;;;;;2.99;77.98;101305.34;510784;1099;114417;-59
2021/03/01 16:14:46;;;;;;;37.33;24.83;;;;;;;2.93;78.74;101301.05;510555;1099;114183;-55
2021/03/01 16:25:03;;;;;;;;;;;;;;;2.82;78.59;101295.92;510791;1099;114960;-58
2021/03/01 16:35:09;;;;;;;33.73;20.67;;;;;;;2.61;78.81;101302.07;511157;1099;101410;-56
2021/03/01 16:45:15;;;;;;;35.23;18.67;;;;;;;2.51;78.97;101293.44;510869;1099;115029;-57
2021/03/01 16:55:19;;;;;;;29.97;17.93;;;;;;;2.45;79.08;101299.50;510705;1098;114095;-56
2021/03/01 17:05:29;;;;;;;28.80;18.70;;;;;;;2.48;79.23;101309.89;510643;1099;115685;-54
2021/03/01 17:15:33;;;;;;;28.20;18.93;;;;;;;2.38;79.13;101313.38;510753;1099;114207;-59
2021/03/01 17:25:38;;;;;;;34.17;19.67;;;;;;;2.39;79.69;101322.88;510452;1099;115041;-60
2021/03/01 17:35:48;;;;;;;29.97;18.13;;;;;;;2.34;79.64;101319.41;510112;1099;115043;-60
2021/03/01 17:45:55;;;;;;;40.07;23.90;;;;;;;2.33;79.43;101302.13;510432;1102;115256;-61
2021/03/01 17:56:14;;;;;;;41.48;24.50;;;;;;;2.30;80.14;101309.92;510027;1099;115051;-59
2021/03/01 18:06:21;;;;;;;39.37;24.17;;;;;;;2.21;80.02;101311.66;510499;1099;114069;-60
2021/03/01 18:16:31;;;;;;;38.50;22.23;;;;;;;2.24;80.43;101309.05;510608;1099;114544;-60
2021/03/01 18:26:36;;;;;;;36.37;21.60;;;;;;;2.24;80.44;101310.80;510795;1098;114138;-61
2021/03/01 18:36:48;;;;;;;51.83;26.03;;;;;;;2.10;80.63;101316.88;511008;1099;114317;-60
2021/03/01 18:46:55;;;;;;;38.27;22.23;;;;;;;2.06;80.43;101327.23;510601;1099;114737;-61
2021/03/01 18:56:59;;;;;;;;;;;;;;;2.06;80.84;101311.69;510489;1099;115741;-60
2021/03/01 19:07:03;;;;;;;36.47;20.90;;;;;;;2.05;80.85;101325.52;510641;1099;101007;-60
2021/03/01 19:17:10;;;;;;;37.20;21.27;;;;;;;2.11;81.06;101330.67;510521;1098;114450;-50
2021/03/01 19:27:14;;;;;;;54.07;26.03;;;;;;;2.14;81.20;101324.64;510446;1099;115574;-53
2021/03/01 19:37:18;;;;;;;46.70;25.45;;;;;;;2.06;81.19;101329.83;510681;1099;114207;-55
2021/03/01 19:47:22;;;;;;;41.17;23.30;;;;;;;2.05;81.01;101320.33;510691;1099;115066;-55
2021/03/01 19:57:27;;;;;;;41.53;24.45;;;;;;;1.99;80.96;101318.61;510650;1099;115061;-52
2021/03/01 20:07:32;;;;;;;32.10;20.43;;;;;;;1.91;81.23;101308.25;511089;1099;114494;-59
2021/03/01 20:17:37;;;;;;;31.00;18.83;;;;;;;1.85;81.14;101297.88;510444;1099;114097;-59
2021/03/01 20:27:41;;;;;;;31.27;18.50;;;;;;;1.89;81.60;101304.78;510523;1098;114792;-58
2021/03/01 20:37:47;;;;;;;36.50;22.67;;;;;;;1.91;81.84;101307.38;501828;1099;10029885;-61
2021/03/01 20:47:54;;;;;;;45.57;24.33;;;;;;;1.94;81.44;101308.25;510381;1099;115717;-63
2021/03/01 20:57:58;;;;;;;45.12;28.35;;;;;;;1.91;81.64;101302.20;510557;1099;114828;-62
2021/03/01 21:08:22;;;;;;;33.13;22.60;;;;;;;1.82;81.88;101298.73;510475;1099;114120;-62
2021/03/01 21:18:25;;;;;;;35.13;22.00;;;;;;;1.76;81.87;101300.47;510697;1099;114094;-62
2021/03/01 21:28:31;;;;;;;34.13;21.83;;;;;;;1.73;81.97;101301.36;510879;1098;115145;-62
2021/03/01 21:38:36;;;;;;;33.67;21.47;;;;;;;1.79;82.03;101295.28;510460;1099;114261;-63
2021/03/01 21:48:43;;;;;;;50.93;26.87;;;;;;;1.78;81.99;101288.38;510653;1099;114124;-63
2021/03/01 21:58:48;;;;;;;30.53;20.87;;;;;;;1.82;81.80;101295.30;510468;1099;114577;-63
2021/03/01 22:08:52;;;;;;;32.23;20.90;;;;;;;1.84;82.29;101296.16;510570;1097;114506;-64
2021/03/01 22:18:57;;;;;;;32.70;22.33;;;;;;;1.89;81.73;101293.57;510952;1098;114585;-62
2021/03/01 22:29:08;;;;;;;36.43;21.07;;;;;;;1.86;82.05;101293.58;510805;1098;114252;-64
2021/03/01 22:39:14;;;;;;;31.50;19.80;;;;;;;1.74;81.62;101287.54;511465;1099;114743;-63
2021/03/01 22:49:19;;;;;;;32.05;20.65;;;;;;;1.68;82.03;101287.52;510454;1099;114096;-68
2021/03/01 22:59:26;;;;;;;36.60;22.40;;;;;;;1.76;81.98;101290.98;510543;1098;114546;-69
2021/03/01 23:09:30;;;;;;;36.58;21.87;;;;;;;1.71;82.18;101297.03;509951;1099;114185;-69
2021/03/01 23:19:34;;;;;;;34.50;20.87;;;;;;;1.75;82.13;101289.27;510803;1099;114082;-71
2021/03/01 23:29:38;;;;;;;42.53;22.20;;;;;;;1.85;82.26;101300.47;510731;1099;114315;-69
2021/03/01 23:39:44;;;;;;;34.20;19.97;;;;;;;1.92;82.36;101293.55;510849;1099;114457;-69
2021/03/01 23:49:50;;;;;;;34.27;19.57;;;;;;;1.94;82.17;101291.83;510800;1099;114599;-68
2021/03/01 23:59:56;;;;;;;29.40;18.05;;;;;;;1.87;81.94;101296.15;510273;1098;114997;-69
